createdAt,value
2018-12-01T00:00:08.884Z,53.723145
2018-12-01T00:00:35.262Z,54.119873
2018-12-01T00:01:01.641Z,54.925537
2018-12-01T00:01:28.992Z,54.022217
2018-12-01T00:01:55.402Z,53.723145
2018-12-01T00:02:22.867Z,53.723145
2018-12-01T00:02:49.208Z,53.723145
2018-12-01T00:03:15.561Z,53.723145
2018-12-01T00:03:41.915Z,53.723145
2018-12-01T00:04:08.290Z,53.723145
2018-12-01T00:04:34.641Z,53.723145
2018-12-01T00:05:01.098Z,53.723145
2018-12-01T00:05:27.507Z,53.820801
2018-12-01T00:05:54.874Z,53.820801
2018-12-01T00:06:21.217Z,53.723145
2018-12-01T00:06:47.595Z,53.918457
2018-12-01T00:07:14.790Z,53.723145
2018-12-01T00:07:41.138Z,53.723145
2018-12-01T00:08:07.635Z,53.723145
2018-12-01T00:08:33.975Z,53.723145
2018-12-01T00:09:00.329Z,53.723145
2018-12-01T00:09:27.520Z,53.723145
2018-12-01T00:10:56.759Z,53.723145
2018-12-01T00:12:27.090Z,53.723145
2018-12-01T00:13:57.465Z,53.820801
2018-12-01T00:15:27.835Z,53.918457
2018-12-01T00:16:58.186Z,53.918457
2018-12-01T00:18:28.534Z,53.820801
2018-12-01T00:19:58.851Z,53.918457
2018-12-01T00:29:31.445Z,53.723145
2018-12-01T11:31:52.381Z,38.604736
2018-12-01T11:37:15.482Z,54.638672
2018-12-01T11:42:38.025Z,58.026123
2018-12-01T11:48:01.472Z,57.769775
2018-12-01T11:53:24.023Z,58.435059
2018-12-01T11:58:46.594Z,61.37085
2018-12-01T12:04:09.156Z,63.702393
2018-12-01T12:09:31.741Z,62.445068
2018-12-01T12:14:54.396Z,62.927246
2018-12-01T13:20:14.368Z,68.109131
2018-12-01T13:25:38.027Z,70.294189
2018-12-01T13:31:00.685Z,69.98291
2018-12-01T13:36:23.564Z,70.941162
2018-12-01T13:41:47.026Z,70.635986
2018-12-01T13:47:09.798Z,71.386719
2018-12-01T13:52:32.497Z,71.722412
2018-12-01T13:57:55.284Z,71.929932
2018-12-01T14:03:17.936Z,71.929932
2018-12-01T14:08:40.697Z,71.826172
2018-12-01T14:14:03.320Z,72.851562
2018-12-01T14:19:25.975Z,73.608398
2018-12-01T14:24:48.634Z,72.821045
2018-12-01T14:30:13.004Z,71.966553
2018-12-01T14:35:35.805Z,72.20459
2018-12-01T14:40:58.838Z,71.551514
2018-12-01T14:46:23.724Z,71.380615
2018-12-01T14:51:44.938Z,71.789551
2018-12-01T14:57:07.850Z,72.10083
2018-12-01T15:02:30.619Z,73.980713
2018-12-01T15:07:53.562Z,73.883057
2018-12-01T15:13:16.410Z,74.42627
2018-12-01T15:18:40.518Z,75.457764
2018-12-01T15:24:03.518Z,76.2146
2018-12-01T15:29:26.448Z,77.23999
2018-12-01T15:34:50.030Z,77.484131
2018-12-01T15:40:13.838Z,77.34375
2018-12-01T15:45:36.849Z,77.032471
2018-12-01T15:50:59.943Z,77.484131
2018-12-01T15:56:22.861Z,78.240967
2018-12-01T16:01:45.771Z,78.240967
2018-12-01T16:07:08.727Z,78.033447
2018-12-01T16:12:31.628Z,78.405762
2018-12-01T16:17:54.667Z,77.581787
2018-12-01T16:23:17.605Z,77.996826
2018-12-01T16:28:40.461Z,77.484131
2018-12-01T16:34:03.499Z,76.928711
2018-12-01T16:39:26.601Z,76.928711
2018-12-01T16:44:49.388Z,76.727295
2018-12-01T16:50:13.314Z,75.799561
2018-12-01T16:55:37.219Z,76.416016
2018-12-01T17:01:00.028Z,75.695801
2018-12-01T17:06:22.780Z,74.737549
2018-12-01T17:11:46.288Z,74.633789
2018-12-01T17:17:09.784Z,74.530029
2018-12-01T17:22:33.060Z,74.121094
2018-12-01T17:27:56.289Z,74.121094
2018-12-01T17:33:19.137Z,73.608398
2018-12-01T17:38:42.852Z,75.146484
2018-12-01T17:44:05.532Z,72.650146
2018-12-01T17:49:28.999Z,72.546387
2018-12-01T17:54:52.258Z,72.338867
2018-12-01T18:00:16.008Z,72.442627
2018-12-01T18:05:37.834Z,73.266602
2018-12-01T18:11:00.571Z,73.675537
2018-12-01T18:16:23.214Z,74.841309
2018-12-01T18:21:45.911Z,74.42627
2018-12-01T18:27:09.522Z,73.913574
2018-12-01T18:32:32.649Z,74.328613
2018-12-01T18:37:56.435Z,75.042725
2018-12-01T18:43:19.285Z,76.00708
2018-12-01T18:48:42.017Z,76.11084
2018-12-01T18:54:04.801Z,76.519775
2018-12-01T18:59:27.435Z,76.2146
2018-12-01T19:04:50.114Z,76.898193
2018-12-01T19:10:15.502Z,76.690674
2018-12-01T19:15:38.684Z,77.55127
2018-12-01T19:21:01.885Z,77.752686
2018-12-01T19:26:25.519Z,78.167725
2018-12-01T19:31:49.045Z,79.089355
2018-12-01T19:37:11.953Z,79.80957
2018-12-01T19:42:35.838Z,79.80957
2018-12-01T19:47:58.596Z,80.529785
2018-12-01T19:53:21.382Z,82.629395
2018-12-01T19:58:45.071Z,84.375
2018-12-01T20:04:08.578Z,86.26709
2018-12-01T20:09:31.565Z,86.37085
2018-12-01T20:14:54.378Z,87.237549
2018-12-01T20:20:18.052Z,87.957764
2018-12-01T20:25:40.781Z,87.438965
2018-12-01T20:31:04.434Z,87.750244
2018-12-01T20:36:27.210Z,87.341309
2018-12-01T20:41:50.744Z,88.989258
2018-12-01T20:47:12.683Z,89.648438
2018-12-01T20:52:35.561Z,90.057373
2018-12-01T20:57:58.306Z,91.912842
2018-12-01T21:03:21.039Z,93.499756
2018-12-01T21:08:45.527Z,95.050049
2018-12-01T21:14:09.356Z,95.874023
2018-12-01T21:19:32.068Z,96.636963
2018-12-01T21:24:55.086Z,96.844482
2018-12-01T21:30:18.940Z,96.844482
2018-12-01T21:35:41.579Z,97.009277
2018-12-01T21:41:04.363Z,96.697998
2018-12-01T21:46:27.402Z,96.594238
2018-12-01T21:51:51.892Z,96.905518
2018-12-01T21:57:14.541Z,96.282959
2018-12-01T22:02:37.234Z,96.081543
2018-12-01T22:07:59.980Z,95.41626
2018-12-01T22:13:22.636Z,94.488525
2018-12-01T22:18:45.382Z,93.560791
2018-12-01T22:24:08.174Z,92.285156
2018-12-01T22:29:31.021Z,91.662598
2018-12-01T22:34:53.747Z,90.899658
2018-12-01T22:40:16.538Z,90.594482
2018-12-01T22:45:39.332Z,90.490723
2018-12-01T22:51:01.994Z,90.795898
2018-12-01T22:56:28.828Z,89.459229
2018-12-01T23:01:48.778Z,88.079834
2018-12-01T23:07:11.451Z,87.670898
2018-12-01T23:12:34.964Z,86.907959
2018-12-01T23:17:57.633Z,85.882568
2018-12-01T23:23:20.280Z,85.571289
2018-12-01T23:28:42.970Z,85.778809
2018-12-01T23:34:05.637Z,86.395264
2018-12-01T23:39:28.266Z,86.187744
2018-12-01T23:44:51.602Z,85.534668
2018-12-01T23:50:14.642Z,86.083984
2018-12-01T23:55:37.274Z,85.632324
